createdAt,value
2022-08-04T00:02:26.202Z,54.60
2022-08-04T00:07:19.730Z,54.10
2022-08-04T00:15:04.328Z,54.20
2022-08-04T00:17:30.802Z,54.50
2022-08-04T00:19:57.248Z,54.40
2022-08-04T00:24:50.683Z,54.10
2022-08-04T00:27:17.129Z,54.00
2022-08-04T00:29:43.569Z,54.60
2022-08-04T00:32:10.036Z,54.40
2022-08-04T00:34:36.483Z,54.20
2022-08-04T00:37:02.914Z,54.20
2022-08-04T00:39:29.433Z,54.30
2022-08-04T00:41:56.476Z,54.80
2022-08-04T00:44:24.150Z,54.20
2022-08-04T00:49:17.694Z,54.40
2022-08-04T00:51:44.149Z,54.10
2022-08-04T00:54:10.591Z,54.00
2022-08-04T00:56:37.066Z,54.10
2022-08-04T00:59:03.525Z,54.10
2022-08-04T01:01:30.031Z,54.00
2022-08-04T01:03:56.499Z,54.10
2022-08-04T01:06:22.949Z,54.00
2022-08-04T01:11:16.373Z,53.90
2022-08-04T01:13:42.825Z,53.80
2022-08-04T01:16:09.286Z,53.90
2022-08-04T01:18:35.783Z,54.00
2022-08-04T01:21:02.211Z,53.70
2022-08-04T01:23:28.649Z,53.80
2022-08-04T01:25:55.502Z,53.70
2022-08-04T01:28:23.348Z,53.70
2022-08-04T01:30:51.509Z,54.20
2022-08-04T01:33:17.974Z,53.70
2022-08-04T01:35:47.274Z,53.80
2022-08-04T01:40:45.038Z,53.40
2022-08-04T01:43:11.494Z,53.90
2022-08-04T01:45:37.925Z,53.90
2022-08-04T01:48:04.384Z,53.90
2022-08-04T01:50:30.865Z,53.70
2022-08-04T01:52:57.332Z,53.90
2022-08-04T01:55:23.778Z,53.80
2022-08-04T01:58:10.249Z,54.30
2022-08-04T02:00:36.689Z,53.70
2022-08-04T02:03:03.243Z,53.60
2022-08-04T02:06:03.890Z,53.70
2022-08-04T02:08:16.204Z,53.50
2022-08-04T02:10:42.633Z,53.70
2022-08-04T02:13:09.081Z,53.60
2022-08-04T02:15:35.544Z,53.40
2022-08-04T02:18:01.991Z,53.60
2022-08-04T02:20:28.454Z,53.90
2022-08-04T02:22:54.928Z,53.60
2022-08-04T02:25:21.366Z,53.60
2022-08-04T02:28:00.462Z,53.40
2022-08-04T02:30:27.444Z,53.40
2022-08-04T02:32:53.885Z,53.20
2022-08-04T02:35:20.352Z,53.70
2022-08-04T02:37:46.800Z,53.90
2022-08-04T02:40:13.241Z,53.90
2022-08-04T02:42:39.696Z,53.50
2022-08-04T02:45:06.140Z,53.40
2022-08-04T02:48:23.666Z,53.60
2022-08-04T02:50:28.972Z,53.60
2022-08-04T02:52:55.792Z,53.50
2022-08-04T02:55:22.258Z,53.40
2022-08-04T02:57:48.722Z,53.40
2022-08-04T03:00:15.157Z,53.60
2022-08-04T03:02:41.603Z,53.50
2022-08-04T03:07:35.040Z,53.40
2022-08-04T03:10:01.487Z,53.70
2022-08-04T03:12:27.946Z,53.50
2022-08-04T03:17:21.588Z,53.40
2022-08-04T03:19:48.209Z,53.30
2022-08-04T03:24:41.634Z,53.40
2022-08-04T03:27:08.094Z,53.40
2022-08-04T03:29:36.408Z,53.30
2022-08-04T03:32:03.430Z,53.30
2022-08-04T03:34:29.886Z,53.40
2022-08-04T03:36:56.347Z,53.50
2022-08-04T03:39:22.944Z,51.80
2022-08-04T03:44:18.513Z,50.30
2022-08-04T03:46:44.961Z,50.20
2022-08-04T03:51:38.401Z,50.70
2022-08-04T03:54:04.842Z,51.50
2022-08-04T03:56:31.304Z,50.50
2022-08-04T04:01:24.725Z,51.50
2022-08-04T04:03:51.166Z,51.30
2022-08-04T04:06:17.618Z,51.60
2022-08-04T04:08:45.152Z,50.60
2022-08-04T04:11:13.002Z,50.70
2022-08-04T04:13:39.457Z,51.90
2022-08-04T04:16:05.906Z,51.80
2022-08-04T04:18:32.368Z,52.40
2022-08-04T04:20:58.802Z,51.70
2022-08-04T04:25:52.239Z,52.30
2022-08-04T04:28:45.714Z,52.60
2022-08-04T04:33:32.133Z,52.30
2022-08-04T04:35:58.580Z,52.10
2022-08-04T04:38:25.029Z,52.70
2022-08-04T04:40:51.468Z,53.20
2022-08-04T04:43:17.906Z,52.50
2022-08-04T04:45:44.365Z,52.60
2022-08-04T04:48:11.196Z,52.90
2022-08-04T04:50:37.839Z,53.30
2022-08-04T04:55:31.297Z,53.90
2022-08-04T04:57:57.747Z,54.50
2022-08-04T05:00:24.208Z,54.50
2022-08-04T05:02:50.661Z,54.60
2022-08-04T05:05:17.127Z,55.20
2022-08-04T05:10:10.565Z,55.90
2022-08-04T05:15:25.586Z,56.00
2022-08-04T05:17:53.110Z,56.40
2022-08-04T05:20:19.645Z,57.00
2022-08-04T05:22:46.096Z,56.60
2022-08-04T05:25:12.549Z,56.80
2022-08-04T05:27:40.174Z,56.70
2022-08-04T05:30:06.826Z,57.20
2022-08-04T05:35:00.353Z,57.00
2022-08-04T05:37:28.335Z,57.50
2022-08-04T05:39:56.869Z,57.20
2022-08-04T05:42:23.438Z,57.40
2022-08-04T05:47:17.851Z,57.50
2022-08-04T05:52:11.305Z,56.80
2022-08-04T05:54:37.794Z,56.20
2022-08-04T05:57:04.241Z,56.60
2022-08-04T06:01:58.185Z,56.50
2022-08-04T06:06:51.781Z,56.40
2022-08-04T06:09:18.242Z,57.60
2022-08-04T06:12:02.037Z,57.20
2022-08-04T06:14:30.929Z,57.00
2022-08-04T06:16:57.395Z,56.70
2022-08-04T06:20:02.597Z,57.50
2022-08-04T06:22:10.603Z,58.00
2022-08-04T06:24:37.050Z,57.40
2022-08-04T06:27:03.520Z,57.30
2022-08-04T06:32:27.000Z,57.80
2022-08-04T06:34:43.428Z,57.00
2022-08-04T06:37:09.870Z,57.80
2022-08-04T06:42:22.738Z,58.00
2022-08-04T06:44:49.542Z,58.30
2022-08-04T06:47:16.085Z,58.40
2022-08-04T06:49:44.151Z,58.00
2022-08-04T06:52:28.967Z,56.70
2022-08-04T06:57:24.161Z,57.50
2022-08-04T06:59:50.615Z,57.60
2022-08-04T07:02:17.102Z,56.80
2022-08-04T07:04:43.554Z,56.10
2022-08-04T07:07:10.024Z,56.40
2022-08-04T07:14:30.478Z,55.20
2022-08-04T07:16:56.926Z,56.20
2022-08-04T07:19:23.394Z,56.20
2022-08-04T07:22:18.838Z,56.20
2022-08-04T07:27:03.266Z,54.80
2022-08-04T07:29:29.742Z,54.70
2022-08-04T07:34:23.179Z,54.90
2022-08-04T07:39:27.259Z,55.40
2022-08-04T07:41:54.373Z,55.30
2022-08-04T07:46:47.820Z,53.60
2022-08-04T07:52:01.206Z,54.10
2022-08-04T07:54:27.644Z,54.20
2022-08-04T07:56:54.107Z,54.10
2022-08-04T07:59:20.554Z,54.50
2022-08-04T08:01:47.026Z,54.60
2022-08-04T08:04:13.461Z,54.80
2022-08-04T08:06:43.011Z,55.00
2022-08-04T08:12:36.519Z,55.00
2022-08-04T08:14:26.836Z,54.80
2022-08-04T08:19:20.291Z,55.20
2022-08-04T08:21:58.366Z,54.10
2022-08-04T08:24:26.287Z,55.20
2022-08-04T08:26:52.736Z,54.90
2022-08-04T08:29:19.187Z,55.20
2022-08-04T08:31:55.918Z,54.20
2022-08-04T08:34:28.230Z,55.10
2022-08-04T08:36:55.152Z,55.30
2022-08-04T08:39:24.613Z,55.10
2022-08-04T08:41:52.220Z,55.40
2022-08-04T08:44:19.088Z,55.20
2022-08-04T08:46:49.894Z,54.00
2022-08-04T08:50:02.592Z,55.30
2022-08-04T08:52:03.078Z,55.10
2022-08-04T08:54:30.221Z,54.00
2022-08-04T08:56:56.695Z,55.00
2022-08-04T08:59:23.143Z,55.40
2022-08-04T09:01:49.652Z,55.20
2022-08-04T09:06:50.531Z,55.40
2022-08-04T09:09:17.020Z,55.20
2022-08-04T09:11:43.467Z,55.30
2022-08-04T09:14:09.910Z,55.30
2022-08-04T09:16:36.355Z,55.30
2022-08-04T09:19:02.799Z,54.40
2022-08-04T09:21:29.254Z,55.20
2022-08-04T09:23:55.699Z,55.50
2022-08-04T09:26:22.238Z,55.00
2022-08-04T09:28:54.189Z,55.00
2022-08-04T09:33:48.171Z,55.30
2022-08-04T09:36:14.618Z,55.50
2022-08-04T09:38:52.737Z,55.30
2022-08-04T09:41:33.940Z,55.20
2022-08-04T09:44:49.310Z,54.90
2022-08-04T09:46:52.061Z,55.50
2022-08-04T09:49:18.526Z,55.20
2022-08-04T09:51:58.719Z,55.20
2022-08-04T09:56:56.896Z,55.20
2022-08-04T09:59:23.352Z,55.20
2022-08-04T10:01:49.789Z,55.10
2022-08-04T10:11:56.068Z,55.60
2022-08-04T10:14:23.336Z,54.40
2022-08-04T10:16:49.802Z,55.20
2022-08-04T10:19:16.252Z,54.80
2022-08-04T10:21:59.052Z,55.10
2022-08-04T10:24:26.231Z,55.20
2022-08-04T10:26:57.222Z,55.00
2022-08-04T10:29:24.054Z,54.90
2022-08-04T10:31:50.550Z,54.90
2022-08-04T10:34:16.995Z,54.60
2022-08-04T10:36:43.455Z,54.90
2022-08-04T10:39:13.959Z,55.00
2022-08-04T10:41:56.343Z,55.00
2022-08-04T10:44:26.313Z,55.10
2022-08-04T10:49:21.608Z,54.80
2022-08-04T10:54:24.354Z,55.00
2022-08-04T10:56:53.985Z,54.80
2022-08-04T10:59:23.195Z,55.00
2022-08-04T11:01:59.722Z,55.00
2022-08-04T11:04:29.588Z,55.00
2022-08-04T11:06:56.065Z,55.10
2022-08-04T11:09:22.523Z,54.80
2022-08-04T11:11:56.923Z,54.60
2022-08-04T11:16:55.957Z,55.00
2022-08-04T11:21:50.053Z,55.00
2022-08-04T11:24:16.496Z,54.90
2022-08-04T11:26:42.937Z,53.90
2022-08-04T11:31:36.404Z,54.90
2022-08-04T11:34:02.854Z,55.30
2022-08-04T11:36:29.301Z,55.00
2022-08-04T11:38:55.834Z,54.70
2022-08-04T11:41:22.390Z,54.80
2022-08-04T11:44:00.737Z,54.90
2022-08-04T11:46:29.527Z,55.30
2022-08-04T11:48:55.990Z,55.20
2022-08-04T11:53:49.474Z,54.70
2022-08-04T11:56:27.666Z,55.00
2022-08-04T11:59:02.408Z,55.20
2022-08-04T12:01:28.871Z,54.90
2022-08-04T12:03:59.655Z,54.50
2022-08-04T12:06:30.502Z,54.60
2022-08-04T12:08:56.965Z,54.60
2022-08-04T12:11:23.455Z,54.60
2022-08-04T12:13:49.929Z,54.70
2022-08-04T12:16:16.394Z,54.70
2022-08-04T12:18:42.846Z,54.30
2022-08-04T12:21:10.510Z,54.50
2022-08-04T12:23:36.985Z,54.50
2022-08-04T12:26:03.426Z,54.50
2022-08-04T12:31:13.153Z,54.50
2022-08-04T12:34:03.056Z,54.30
2022-08-04T12:36:26.082Z,54.70
2022-08-04T12:38:52.602Z,54.80
2022-08-04T12:41:19.115Z,54.40
2022-08-04T12:43:45.558Z,54.60
2022-08-04T12:46:12.015Z,54.50
2022-08-04T12:51:05.459Z,54.70
2022-08-04T12:53:32.617Z,55.90
2022-08-04T12:56:01.154Z,55.30
2022-08-04T12:58:43.069Z,55.20
2022-08-04T13:02:10.103Z,55.30
2022-08-04T13:03:56.792Z,57.10
2022-08-04T13:08:50.301Z,56.50
2022-08-04T13:11:16.760Z,56.70
2022-08-04T13:13:43.210Z,56.90
2022-08-04T13:18:39.481Z,56.20
2022-08-04T13:24:09.509Z,56.40
2022-08-04T13:26:42.780Z,56.50
2022-08-04T13:29:16.704Z,56.40
2022-08-04T13:31:43.421Z,56.50
2022-08-04T13:34:19.497Z,56.60
2022-08-04T13:36:45.961Z,56.30
2022-08-04T13:39:12.489Z,56.70
2022-08-04T13:46:50.718Z,56.50
2022-08-04T13:49:37.468Z,56.40
2022-08-04T13:52:04.753Z,56.50
2022-08-04T13:54:42.673Z,56.50
2022-08-04T13:57:09.589Z,56.50
2022-08-04T13:59:36.069Z,56.30
2022-08-04T14:02:02.514Z,56.20
2022-08-04T14:04:28.958Z,56.40
2022-08-04T14:06:56.440Z,56.40
2022-08-04T14:09:22.892Z,56.50
2022-08-04T14:12:06.102Z,56.60
2022-08-04T14:14:37.498Z,56.50
2022-08-04T14:17:03.954Z,56.30
2022-08-04T14:19:36.121Z,56.40
2022-08-04T14:22:02.893Z,56.30
2022-08-04T14:24:29.356Z,56.10
2022-08-04T14:26:55.809Z,56.10
2022-08-04T14:29:26.621Z,56.20
2022-08-04T14:31:57.737Z,56.30
2022-08-04T14:34:26.006Z,55.80
2022-08-04T14:39:39.802Z,56.20
2022-08-04T14:42:06.290Z,56.20
2022-08-04T14:44:32.745Z,56.40
2022-08-04T14:46:59.230Z,56.30
2022-08-04T14:49:25.670Z,56.10
2022-08-04T14:51:52.138Z,56.10
2022-08-04T14:54:19.119Z,56.20
2022-08-04T14:59:13.805Z,56.20
2022-08-04T15:04:07.339Z,56.50
2022-08-04T15:06:33.784Z,56.20
2022-08-04T15:11:27.241Z,56.00
2022-08-04T15:16:21.578Z,56.20
2022-08-04T15:18:49.263Z,55.90
2022-08-04T15:21:16.276Z,56.30
2022-08-04T15:23:42.734Z,56.10
2022-08-04T15:26:09.255Z,56.40
2022-08-04T15:28:36.183Z,56.40
2022-08-04T15:31:02.639Z,56.40
2022-08-04T15:33:33.676Z,56.70
2022-08-04T15:36:00.728Z,56.60
2022-08-04T15:38:30.928Z,56.60
2022-08-04T15:40:57.560Z,56.20
2022-08-04T15:43:24.031Z,56.00
2022-08-04T15:46:43.573Z,56.20
2022-08-04T15:48:36.926Z,56.50
2022-08-04T15:51:03.402Z,56.40
2022-08-04T15:56:16.786Z,56.40
2022-08-04T15:58:48.913Z,56.40
2022-08-04T16:01:15.442Z,56.30
2022-08-04T16:03:58.276Z,56.20
2022-08-04T16:08:58.185Z,56.10
2022-08-04T16:13:58.470Z,56.60
2022-08-04T16:16:24.936Z,56.60
2022-08-04T16:18:51.385Z,56.40
2022-08-04T16:21:17.874Z,56.40
2022-08-04T16:23:54.185Z,56.40
2022-08-04T16:26:30.603Z,56.50
2022-08-04T16:28:57.306Z,56.50
2022-08-04T16:31:23.789Z,56.60
2022-08-04T16:33:50.627Z,56.50
2022-08-04T16:36:37.061Z,56.10
2022-08-04T16:41:30.644Z,56.70
2022-08-04T16:43:57.103Z,56.60
2022-08-04T16:46:23.610Z,56.50
2022-08-04T16:48:50.218Z,56.60
2022-08-04T16:51:16.684Z,56.50
2022-08-04T16:54:03.841Z,56.40
2022-08-04T16:56:29.576Z,56.60
2022-08-04T16:58:56.016Z,56.60
2022-08-04T17:04:00.363Z,56.90
2022-08-04T17:06:26.856Z,56.50
2022-08-04T17:11:20.319Z,57.30
2022-08-04T17:14:02.599Z,56.70
2022-08-04T17:18:58.417Z,56.30
2022-08-04T17:21:25.005Z,56.30
2022-08-04T17:26:40.397Z,56.80
2022-08-04T17:29:08.357Z,56.50
2022-08-04T17:31:34.990Z,56.60
2022-08-04T17:34:01.444Z,56.80
2022-08-04T17:38:55.083Z,57.10
2022-08-04T17:41:30.490Z,56.80
2022-08-04T17:44:07.037Z,57.10
2022-08-04T17:46:33.742Z,57.00
2022-08-04T17:49:00.255Z,57.00
2022-08-04T17:52:04.986Z,56.90
2022-08-04T17:54:13.121Z,56.90
2022-08-04T17:56:51.344Z,57.30
2022-08-04T17:59:55.995Z,57.90
2022-08-04T18:02:05.481Z,58.10
2022-08-04T18:04:35.224Z,57.30
2022-08-04T18:07:02.256Z,57.50
2022-08-04T18:10:02.100Z,57.90
2022-08-04T18:12:15.221Z,57.90
2022-08-04T18:14:41.685Z,57.40
2022-08-04T18:18:19.970Z,57.40
2022-08-04T18:22:28.314Z,57.30
2022-08-04T18:24:55.459Z,57.40
2022-08-04T18:27:23.461Z,58.00
2022-08-04T18:35:05.374Z,57.70
2022-08-04T18:38:05.800Z,57.60
2022-08-04T18:40:29.899Z,57.30
2022-08-04T18:43:01.916Z,58.00
2022-08-04T18:45:33.976Z,57.50
2022-08-04T18:51:11.321Z,58.10
2022-08-04T18:53:14.738Z,57.60
2022-08-04T18:55:56.595Z,57.60
2022-08-04T18:58:27.143Z,57.50
2022-08-04T19:00:54.146Z,57.40
2022-08-04T19:03:22.817Z,57.30
2022-08-04T19:05:49.773Z,57.40
2022-08-04T19:08:33.096Z,57.60
2022-08-04T19:13:28.523Z,57.30
2022-08-04T19:16:01.211Z,57.70
2022-08-04T19:20:54.698Z,57.60
2022-08-04T19:24:30.532Z,57.50
2022-08-04T19:26:23.614Z,58.00
2022-08-04T19:31:24.945Z,57.60
2022-08-04T19:33:58.793Z,57.90
2022-08-04T19:36:31.265Z,57.70
2022-08-04T19:38:57.970Z,58.40
2022-08-04T19:44:11.467Z,57.60
2022-08-04T19:46:37.926Z,57.60
2022-08-04T19:49:04.378Z,57.50
2022-08-04T19:51:32.493Z,58.90
2022-08-04T19:54:04.394Z,59.00
2022-08-04T20:01:43.743Z,58.40
2022-08-04T20:04:12.647Z,58.70
2022-08-04T20:06:39.210Z,58.90
2022-08-04T20:11:52.953Z,59.20
2022-08-04T20:14:19.540Z,59.20
2022-08-04T20:16:49.383Z,59.20
2022-08-04T20:19:15.822Z,59.30
2022-08-04T20:21:55.367Z,59.30
2022-08-04T20:24:39.900Z,59.40
2022-08-04T20:27:14.593Z,59.10
2022-08-04T20:29:43.340Z,59.00
2022-08-04T20:32:12.657Z,58.90
2022-08-04T20:34:41.660Z,58.80
2022-08-04T20:37:10.225Z,58.30
2022-08-04T20:39:37.058Z,58.30
2022-08-04T20:42:03.578Z,58.90
2022-08-04T20:44:30.042Z,58.50
2022-08-04T20:46:56.502Z,58.70
2022-08-04T20:49:22.964Z,58.70
2022-08-04T20:52:06.506Z,58.80
2022-08-04T20:54:38.698Z,59.10
2022-08-04T20:57:05.137Z,58.80
2022-08-04T21:01:58.787Z,58.80
2022-08-04T21:04:28.055Z,59.00
2022-08-04T21:06:55.260Z,58.90
2022-08-04T21:09:26.539Z,59.10
2022-08-04T21:12:04.210Z,58.90
2022-08-04T21:14:30.649Z,59.00
2022-08-04T21:16:57.114Z,58.90
2022-08-04T21:19:24.881Z,58.90
2022-08-04T21:21:53.637Z,58.90
2022-08-04T21:24:20.113Z,59.80
2022-08-04T21:31:50.906Z,59.30
2022-08-04T21:34:37.874Z,59.00
2022-08-04T21:37:06.190Z,59.10
2022-08-04T21:39:50.151Z,59.30
2022-08-04T21:42:28.898Z,59.20
2022-08-04T21:45:08.624Z,58.90
2022-08-04T21:47:46.026Z,59.00
2022-08-04T21:52:46.680Z,58.30
2022-08-04T21:55:13.144Z,58.30
2022-08-04T21:57:42.062Z,58.50
2022-08-04T22:00:10.976Z,58.70
2022-08-04T22:02:46.018Z,58.60
2022-08-04T22:05:19.487Z,58.70
2022-08-04T22:07:50.089Z,58.80
2022-08-04T22:10:31.921Z,58.40
2022-08-04T22:12:58.871Z,58.50
2022-08-04T22:16:05.367Z,58.80
2022-08-04T22:18:11.770Z,58.60
2022-08-04T22:23:09.126Z,58.30
2022-08-04T22:25:44.918Z,58.30
2022-08-04T22:28:20.321Z,58.40
2022-08-04T22:30:51.970Z,58.70
2022-08-04T22:33:22.664Z,58.60
2022-08-04T22:38:21.280Z,58.50
2022-08-04T22:40:55.643Z,58.80
2022-08-04T22:43:32.398Z,58.50
2022-08-04T22:46:02.017Z,58.40
2022-08-04T22:48:32.067Z,58.40
2022-08-04T22:50:59.099Z,58.30
2022-08-04T22:53:25.597Z,58.30
2022-08-04T22:56:06.905Z,58.10
2022-08-04T22:58:35.941Z,57.90
2022-08-04T23:01:06.488Z,58.30
2022-08-04T23:03:37.472Z,58.00
2022-08-04T23:08:31.840Z,58.20
2022-08-04T23:11:02.901Z,58.20
2022-08-04T23:13:29.368Z,58.50
2022-08-04T23:15:55.827Z,58.50
2022-08-04T23:18:22.276Z,59.10
2022-08-04T23:20:48.818Z,58.40
2022-08-04T23:23:19.302Z,58.30
2022-08-04T23:26:08.603Z,58.70
2022-08-04T23:28:32.214Z,58.40
2022-08-04T23:30:58.672Z,58.10
2022-08-04T23:33:25.119Z,57.40
2022-08-04T23:36:11.887Z,58.80
2022-08-04T23:38:39.160Z,58.10
2022-08-04T23:41:05.832Z,58.20
2022-08-04T23:43:49.263Z,58.10
2022-08-04T23:46:19.678Z,58.10
2022-08-04T23:48:47.313Z,57.90
2022-08-04T23:51:15.641Z,58.10
2022-08-04T23:54:01.552Z,57.70
2022-08-04T23:56:28.720Z,57.60
2022-08-04T23:58:55.717Z,57.80
